sensor_id;sensor_type;location;lat;lon;timestamp;pressure;altitude;pressure_sealevel;temperature;humidity
10718;BME280;13513;42.700;23.124;2022-12-05T00:01:54;93796.52;;;4.69;100.00
10718;BME280;13513;42.700;23.124;2022-12-05T00:04:25;93799.70;;;4.75;100.00
10718;BME280;13513;42.700;23.124;2022-12-05T00:06:56;93798.84;;;4.85;100.00
10718;BME280;13513;42.700;23.124;2022-12-05T00:09:28;93796.63;;;4.71;100.00
10718;BME280;13513;42.700;23.124;2022-12-05T00:11:59;93809.91;;;4.70;100.00
10718;BME280;13513;42.700;23.124;2022-12-05T00:14:30;93807.03;;;4.75;100.00
10718;BME280;13513;42.700;23.124;2022-12-05T00:17:01;93809.37;;;4.64;100.00
10718;BME280;13513;42.700;23.124;2022-12-05T00:19:32;93808.27;;;4.79;100.00
10718;BME280;13513;42.700;23.124;2022-12-05T00:22:02;93816.12;;;4.79;100.00
10718;BME280;13513;42.700;23.124;2022-12-05T00:24:33;93817.50;;;4.75;100.00
10718;BME280;13513;42.700;23.124;2022-12-05T00:27:04;93816.39;;;4.84;100.00
10718;BME280;13513;42.700;23.124;2022-12-05T00:29:35;93823.98;;;4.79;100.00
10718;BME280;13513;42.700;23.124;2022-12-05T00:32:05;93821.05;;;4.78;100.00
10718;BME280;13513;42.700;23.124;2022-12-05T00:34:36;93824.55;;;4.85;100.00
10718;BME280;13513;42.700;23.124;2022-12-05T00:37:07;93819.58;;;4.97;100.00
10718;BME280;13513;42.700;23.124;2022-12-05T00:39:38;93825.70;;;4.93;100.00
10718;BME280;13513;42.700;23.124;2022-12-05T00:42:09;93816.24;;;4.92;100.00
10718;BME280;13513;42.700;23.124;2022-12-05T00:44:40;93816.24;;;4.92;100.00
10718;BME280;13513;42.700;23.124;2022-12-05T00:47:09;93817.62;;;4.78;100.00
10718;BME280;13513;42.700;23.124;2022-12-05T00:49:40;93817.55;;;4.82;100.00
10718;BME280;13513;42.700;23.124;2022-12-05T00:52:10;93807.53;;;4.85;100.00
10718;BME280;13513;42.700;23.124;2022-12-05T00:54:42;93809.39;;;4.81;100.00
10718;BME280;13513;42.700;23.124;2022-12-05T00:57:13;93798.64;;;4.69;100.00
10718;BME280;13513;42.700;23.124;2022-12-05T00:59:43;93797.33;;;4.59;100.00
10718;BME280;13513;42.700;23.124;2022-12-05T01:02:14;93805.14;;;4.63;100.00
10718;BME280;13513;42.700;23.124;2022-12-05T01:04:44;93798.83;;;4.68;100.00
10718;BME280;13513;42.700;23.124;2022-12-05T01:07:15;93791.35;;;4.65;100.00
10718;BME280;13513;42.700;23.124;2022-12-05T01:09:47;93791.73;;;4.51;100.00
10718;BME280;13513;42.700;23.124;2022-12-05T01:12:16;93786.69;;;4.50;100.00
10718;BME280;13513;42.700;23.124;2022-12-05T01:14:46;93791.98;;;4.56;100.00
10718;BME280;13513;42.700;23.124;2022-12-05T01:17:16;93787.68;;;4.59;100.00
10718;BME280;13513;42.700;23.124;2022-12-05T01:19:47;93784.45;;;4.57;100.00
10718;BME280;13513;42.700;23.124;2022-12-05T01:22:17;93789.22;;;4.64;100.00
10718;BME280;13513;42.700;23.124;2022-12-05T01:24:48;93781.20;;;4.55;100.00
10718;BME280;13513;42.700;23.124;2022-12-05T01:27:19;93782.26;;;4.61;100.00
10718;BME280;13513;42.700;23.124;2022-12-05T01:29:50;93777.52;;;4.60;100.00
10718;BME280;13513;42.700;23.124;2022-12-05T01:32:21;93777.52;;;4.60;100.00
10718;BME280;13513;42.700;23.124;2022-12-05T01:34:51;93769.34;;;4.80;100.00
10718;BME280;13513;42.700;23.124;2022-12-05T01:37:21;93769.34;;;4.80;100.00
10718;BME280;13513;42.700;23.124;2022-12-05T01:39:52;93765.64;;;4.85;100.00
10718;BME280;13513;42.700;23.124;2022-12-05T01:42:23;93768.54;;;4.59;100.00
10718;BME280;13513;42.700;23.124;2022-12-05T01:44:59;93768.54;;;4.59;100.00
10718;BME280;13513;42.700;23.124;2022-12-05T01:47:32;93771.63;;;4.79;100.00
10718;BME280;13513;42.700;23.124;2022-12-05T01:50:03;93771.51;;;4.77;100.00
10718;BME280;13513;42.700;23.124;2022-12-05T01:52:35;93773.86;;;4.82;100.00
10718;BME280;13513;42.700;23.124;2022-12-05T01:55:12;93771.39;;;4.74;100.00
10718;BME280;13513;42.700;23.124;2022-12-05T01:57:37;93769.19;;;4.78;100.00
10718;BME280;13513;42.700;23.124;2022-12-05T02:00:12;93775.77;;;4.67;100.00
10718;BME280;13513;42.700;23.124;2022-12-05T02:02:44;93771.02;;;4.77;100.00
10718;BME280;13513;42.700;23.124;2022-12-05T02:05:19;93774.69;;;4.83;100.00
10718;BME280;13513;42.700;23.124;2022-12-05T02:07:49;93775.25;;;4.78;100.00
10718;BME280;13513;42.700;23.124;2022-12-05T02:10:20;93776.59;;;4.85;100.00
10718;BME280;13513;42.700;23.124;2022-12-05T02:12:51;93777.31;;;5.00;100.00
10718;BME280;13513;42.700;23.124;2022-12-05T02:30:16;93765.77;;;4.50;100.00
10718;BME280;13513;42.700;23.124;2022-12-05T02:33:04;93765.34;;;4.46;100.00
10718;BME280;13513;42.700;23.124;2022-12-05T02:35:39;93761.44;;;4.63;100.00
10718;BME280;13513;42.700;23.124;2022-12-05T02:38:24;93760.25;;;4.66;100.00
10718;BME280;13513;42.700;23.124;2022-12-05T02:41:01;93756.77;;;4.69;100.00
10718;BME280;13513;42.700;23.124;2022-12-05T02:46:16;93752.84;;;4.59;100.00
10718;BME280;13513;42.700;23.124;2022-12-05T02:48:48;93757.86;;;4.81;100.00
10718;BME280;13513;42.700;23.124;2022-12-05T02:51:20;93757.86;;;4.81;100.00
10718;BME280;13513;42.700;23.124;2022-12-05T02:53:51;93762.00;;;4.59;100.00
10718;BME280;13513;42.700;23.124;2022-12-05T02:56:23;93759.45;;;4.55;100.00
10718;BME280;13513;42.700;23.124;2022-12-05T02:58:55;93759.83;;;4.62;100.00
10718;BME280;13513;42.700;23.124;2022-12-05T03:01:28;93758.61;;;4.75;100.00
10718;BME280;13513;42.700;23.124;2022-12-05T03:04:03;93755.73;;;4.81;100.00
10718;BME280;13513;42.700;23.124;2022-12-05T03:06:40;93757.52;;;4.91;100.00
10718;BME280;13513;42.700;23.124;2022-12-05T03:09:15;93749.67;;;4.91;100.00
10718;BME280;13513;42.700;23.124;2022-12-05T03:11:46;93751.05;;;4.87;100.00
10718;BME280;13513;42.700;23.124;2022-12-05T03:14:21;93756.81;;;4.93;100.00
10718;BME280;13513;42.700;23.124;2022-12-05T03:16:56;93755.05;;;5.00;100.00
10718;BME280;13513;42.700;23.124;2022-12-05T03:19:30;93747.69;;;4.99;100.00
10718;BME280;13513;42.700;23.124;2022-12-05T03:22:12;93754.79;;;4.88;100.00
10718;BME280;13513;42.700;23.124;2022-12-05T03:24:40;93757.34;;;4.82;100.00
10718;BME280;13513;42.700;23.124;2022-12-05T03:28:15;93753.74;;;4.83;100.00
10718;BME280;13513;42.700;23.124;2022-12-05T03:30:15;93751.91;;;4.83;100.00
10718;BME280;13513;42.700;23.124;2022-12-05T03:32:41;93759.02;;;4.89;100.00
10718;BME280;13513;42.700;23.124;2022-12-05T03:35:39;93750.53;;;4.70;100.00
10718;BME280;13513;42.700;23.124;2022-12-05T03:38:10;93750.53;;;4.70;100.00
10718;BME280;13513;42.700;23.124;2022-12-05T03:46:08;93756.91;;;4.61;100.00
10718;BME280;13513;42.700;23.124;2022-12-05T03:51:17;93749.90;;;4.41;100.00
10718;BME280;13513;42.700;23.124;2022-12-05T03:56:29;93752.56;;;4.47;100.00
10718;BME280;13513;42.700;23.124;2022-12-05T03:59:21;93751.23;;;4.58;100.00
10718;BME280;13513;42.700;23.124;2022-12-05T04:01:51;93753.80;;;4.51;100.00
10718;BME280;13513;42.700;23.124;2022-12-05T04:04:28;93759.01;;;4.62;100.00
10718;BME280;13513;42.700;23.124;2022-12-05T04:07:00;93754.80;;;4.78;100.00
10718;BME280;13513;42.700;23.124;2022-12-05T04:09:43;93749.36;;;4.62;100.00
10718;BME280;13513;42.700;23.124;2022-12-05T04:12:11;93746.00;;;4.58;100.00
10718;BME280;13513;42.700;23.124;2022-12-05T04:14:46;93742.00;;;4.62;100.00
10718;BME280;13513;42.700;23.124;2022-12-05T04:19:54;93743.45;;;4.81;100.00
10718;BME280;13513;42.700;23.124;2022-12-05T04:22:40;93740.73;;;4.79;100.00
10718;BME280;13513;42.700;23.124;2022-12-05T04:25:13;93741.97;;;4.72;100.00
10718;BME280;13513;42.700;23.124;2022-12-05T04:31:01;93739.56;;;4.88;100.00
10718;BME280;13513;42.700;23.124;2022-12-05T04:33:40;93744.24;;;4.92;100.00
10718;BME280;13513;42.700;23.124;2022-12-05T04:36:18;93748.17;;;4.92;100.00
10718;BME280;13513;42.700;23.124;2022-12-05T04:38:57;93751.23;;;5.02;100.00
10718;BME280;13513;42.700;23.124;2022-12-05T04:41:31;93745.02;;;5.03;100.00
10718;BME280;13513;42.700;23.124;2022-12-05T04:44:02;93747.23;;;5.06;100.00
10718;BME280;13513;42.700;23.124;2022-12-05T04:46:33;93743.37;;;5.02;100.00
10718;BME280;13513;42.700;23.124;2022-12-05T04:49:09;93749.97;;;4.92;100.00
10718;BME280;13513;42.700;23.124;2022-12-05T04:51:40;93753.03;;;4.85;100.00
10718;BME280;13513;42.700;23.124;2022-12-05T04:54:18;93751.94;;;5.00;100.00
10718;BME280;13513;42.700;23.124;2022-12-05T04:56:47;93750.03;;;5.05;100.00
10718;BME280;13513;42.700;23.124;2022-12-05T04:59:18;93754.27;;;4.89;100.00
10718;BME280;13513;42.700;23.124;2022-12-05T05:01:52;93751.77;;;4.91;100.00
10718;BME280;13513;42.700;23.124;2022-12-05T05:04:26;93759.02;;;4.89;100.00
10718;BME280;13513;42.700;23.124;2022-12-05T05:06:54;93765.64;;;5.02;100.00
10718;BME280;13513;42.700;23.124;2022-12-05T05:09:25;93763.19;;;5.11;100.00
10718;BME280;13513;42.700;23.124;2022-12-05T05:11:56;93770.86;;;5.13;100.00
10718;BME280;13513;42.700;23.124;2022-12-05T05:14:27;93771.27;;;5.16;100.00
10718;BME280;13513;42.700;23.124;2022-12-05T05:16:58;93774.83;;;5.19;100.00
10718;BME280;13513;42.700;23.124;2022-12-05T05:19:28;93779.09;;;5.27;100.00
10718;BME280;13513;42.700;23.124;2022-12-05T05:21:59;93778.16;;;5.24;100.00
10718;BME280;13513;42.700;23.124;2022-12-05T05:24:30;93780.77;;;5.24;100.00
10718;BME280;13513;42.700;23.124;2022-12-05T05:27:01;93785.57;;;5.14;100.00
10718;BME280;13513;42.700;23.124;2022-12-05T05:29:31;93788.60;;;5.17;100.00
10718;BME280;13513;42.700;23.124;2022-12-05T05:32:02;93787.10;;;5.19;100.00
10718;BME280;13513;42.700;23.124;2022-12-05T05:34:32;93788.52;;;5.21;100.00
10718;BME280;13513;42.700;23.124;2022-12-05T05:37:03;93790.80;;;5.31;100.00
10718;BME280;13513;42.700;23.124;2022-12-05T05:39:34;93792.22;;;5.33;100.00
10718;BME280;13513;42.700;23.124;2022-12-05T05:42:05;93794.75;;;5.37;100.00
10718;BME280;13513;42.700;23.124;2022-12-05T05:44:35;93794.30;;;5.44;100.00
10718;BME280;13513;42.700;23.124;2022-12-05T05:47:06;93793.59;;;5.40;100.00
10718;BME280;13513;42.700;23.124;2022-12-05T05:49:37;93792.69;;;5.43;100.00
10718;BME280;13513;42.700;23.124;2022-12-05T05:52:07;93796.20;;;5.40;100.00
10718;BME280;13513;42.700;23.124;2022-12-05T05:54:38;93789.35;;;5.45;100.00
10718;BME280;13513;42.700;23.124;2022-12-05T05:57:11;93789.35;;;5.45;100.00
10718;BME280;13513;42.700;23.124;2022-12-05T05:59:41;93796.94;;;5.27;100.00
10718;BME280;13513;42.700;23.124;2022-12-05T06:02:12;93797.87;;;5.30;100.00
10718;BME280;13513;42.700;23.124;2022-12-05T06:04:43;93803.03;;;5.34;100.00
10718;BME280;13513;42.700;23.124;2022-12-05T06:07:14;93804.53;;;5.33;100.00
10718;BME280;13513;42.700;23.124;2022-12-05T06:09:44;93799.97;;;5.31;100.00
10718;BME280;13513;42.700;23.124;2022-12-05T06:12:15;93803.84;;;5.41;100.00
10718;BME280;13513;42.700;23.124;2022-12-05T06:14:47;93794.13;;;5.29;100.00
10718;BME280;13513;42.700;23.124;2022-12-05T06:17:19;93796.68;;;5.22;100.00
10718;BME280;13513;42.700;23.124;2022-12-05T06:19:50;93803.67;;;5.26;100.00
10718;BME280;13513;42.700;23.124;2022-12-05T06:22:21;93803.67;;;5.26;100.00
10718;BME280;13513;42.700;23.124;2022-12-05T06:24:51;93799.97;;;5.14;100.00
10718;BME280;13513;42.700;23.124;2022-12-05T06:27:24;93804.69;;;5.25;100.00
10718;BME280;13513;42.700;23.124;2022-12-05T06:29:54;93806.15;;;5.17;100.00
10718;BME280;13513;42.700;23.124;2022-12-05T06:32:26;93810.62;;;5.40;100.00
10718;BME280;13513;42.700;23.124;2022-12-05T06:34:57;93810.62;;;5.40;100.00
10718;BME280;13513;42.700;23.124;2022-12-05T06:37:27;93803.06;;;5.41;100.00
10718;BME280;13513;42.700;23.124;2022-12-05T06:39:58;93809.72;;;5.43;100.00
10718;BME280;13513;42.700;23.124;2022-12-05T06:42:31;93811.44;;;5.47;100.00
10718;BME280;13513;42.700;23.124;2022-12-05T06:45:01;93808.38;;;5.37;100.00
10718;BME280;13513;42.700;23.124;2022-12-05T06:47:32;93812.98;;;5.35;100.00
10718;BME280;13513;42.700;23.124;2022-12-05T06:50:04;93816.58;;;5.27;100.00
10718;BME280;13513;42.700;23.124;2022-12-05T06:52:35;93816.58;;;5.27;100.00
10718;BME280;13513;42.700;23.124;2022-12-05T06:55:08;93818.26;;;5.41;100.00
10718;BME280;13513;42.700;23.124;2022-12-05T06:57:39;93818.67;;;5.38;100.00
10718;BME280;13513;42.700;23.124;2022-12-05T07:00:11;93818.67;;;5.38;100.00
10718;BME280;13513;42.700;23.124;2022-12-05T07:02:58;93818.16;;;5.22;100.00
10718;BME280;13513;42.700;23.124;2022-12-05T07:05:29;93823.28;;;5.36;100.00
10718;BME280;13513;42.700;23.124;2022-12-05T07:08:00;93818.97;;;5.39;100.00
10718;BME280;13513;42.700;23.124;2022-12-05T07:10:31;93820.69;;;5.43;100.00
10718;BME280;13513;42.700;23.124;2022-12-05T07:13:02;93823.56;;;5.48;100.00
10718;BME280;13513;42.700;23.124;2022-12-05T07:15:33;93829.21;;;5.51;100.00
10718;BME280;13513;42.700;23.124;2022-12-05T07:18:04;93832.16;;;5.59;100.00
10718;BME280;13513;42.700;23.124;2022-12-05T07:20:34;93824.77;;;5.69;100.00
10718;BME280;13513;42.700;23.124;2022-12-05T07:23:05;93829.73;;;5.74;100.00
10718;BME280;13513;42.700;23.124;2022-12-05T07:25:39;93816.60;;;5.68;100.00
10718;BME280;13513;42.700;23.124;2022-12-05T07:28:10;93822.03;;;5.66;100.00
10718;BME280;13513;42.700;23.124;2022-12-05T07:30:41;93818.48;;;5.63;100.00
10718;BME280;13513;42.700;23.124;2022-12-05T07:33:12;93818.48;;;5.63;100.00
10718;BME280;13513;42.700;23.124;2022-12-05T07:35:43;93822.88;;;5.56;100.00
10718;BME280;13513;42.700;23.124;2022-12-05T07:38:14;93824.36;;;5.65;100.00
10718;BME280;13513;42.700;23.124;2022-12-05T07:40:45;93821.92;;;5.64;100.00
10718;BME280;13513;42.700;23.124;2022-12-05T07:43:15;93830.91;;;5.48;100.00
10718;BME280;13513;42.700;23.124;2022-12-05T07:45:46;93829.88;;;5.60;100.00
10718;BME280;13513;42.700;23.124;2022-12-05T07:48:17;93825.36;;;5.47;100.00
10718;BME280;13513;42.700;23.124;2022-12-05T07:50:48;93824.52;;;5.57;100.00
10718;BME280;13513;42.700;23.124;2022-12-05T07:53:19;93834.44;;;5.68;100.00
10718;BME280;13513;42.700;23.124;2022-12-05T07:55:50;93840.77;;;5.63;100.00
10718;BME280;13513;42.700;23.124;2022-12-05T07:58:21;93832.52;;;5.66;100.00
10718;BME280;13513;42.700;23.124;2022-12-05T08:00:52;93838.14;;;5.63;100.00
10718;BME280;13513;42.700;23.124;2022-12-05T08:03:25;93842.44;;;5.71;100.00
10718;BME280;13513;42.700;23.124;2022-12-05T08:06:01;93837.11;;;5.75;100.00
10718;BME280;13513;42.700;23.124;2022-12-05T08:08:30;93837.11;;;5.75;100.00
10718;BME280;13513;42.700;23.124;2022-12-05T08:11:12;93833.15;;;5.85;100.00
10718;BME280;13513;42.700;23.124;2022-12-05T08:13:41;93834.27;;;5.87;100.00
10718;BME280;13513;42.700;23.124;2022-12-05T08:16:20;93829.52;;;5.86;100.00
10718;BME280;13513;42.700;23.124;2022-12-05T08:18:54;93838.20;;;5.87;100.00
10718;BME280;13513;42.700;23.124;2022-12-05T08:21:25;93838.33;;;5.96;100.00
10718;BME280;13513;42.700;23.124;2022-12-05T08:23:55;93831.69;;;6.00;100.00
10718;BME280;13513;42.700;23.124;2022-12-05T08:26:28;93831.69;;;6.00;100.00
10718;BME280;13513;42.700;23.124;2022-12-05T08:29:00;93836.34;;;5.81;100.00
10718;BME280;13513;42.700;23.124;2022-12-05T08:31:32;93835.61;;;5.59;100.00
10718;BME280;13513;42.700;23.124;2022-12-05T08:34:02;93839.43;;;5.57;100.00
10718;BME280;13513;42.700;23.124;2022-12-05T08:36:33;93843.94;;;5.69;100.00
10718;BME280;13513;42.700;23.124;2022-12-05T08:39:09;93843.94;;;5.69;100.00
10718;BME280;13513;42.700;23.124;2022-12-05T08:41:41;93840.58;;;5.82;100.00
10718;BME280;13513;42.700;23.124;2022-12-05T08:44:12;93837.33;;;5.80;100.00
10718;BME280;13513;42.700;23.124;2022-12-05T08:46:45;93841.50;;;5.85;100.00
10718;BME280;13513;42.700;23.124;2022-12-05T08:49:15;93844.29;;;5.94;100.00
10718;BME280;13513;42.700;23.124;2022-12-05T08:51:46;93847.21;;;5.95;100.00
10718;BME280;13513;42.700;23.124;2022-12-05T08:54:17;93850.99;;;6.09;100.00
10718;BME280;13513;42.700;23.124;2022-12-05T08:56:49;93843.88;;;6.20;100.00
10718;BME280;13513;42.700;23.124;2022-12-05T08:59:21;93851.17;;;6.31;100.00
10718;BME280;13513;42.700;23.124;2022-12-05T09:01:51;93839.83;;;6.18;100.00
10718;BME280;13513;42.700;23.124;2022-12-05T09:04:22;93841.70;;;6.07;100.00
10718;BME280;13513;42.700;23.124;2022-12-05T09:06:53;93847.89;;;6.16;100.00
10718;BME280;13513;42.700;23.124;2022-12-05T09:09:24;93848.64;;;6.27;100.00
10718;BME280;13513;42.700;23.124;2022-12-05T09:11:57;93845.50;;;6.28;100.00
10718;BME280;13513;42.700;23.124;2022-12-05T09:14:28;93843.00;;;6.30;100.00
10718;BME280;13513;42.700;23.124;2022-12-05T09:17:00;93838.65;;;6.33;100.00
10718;BME280;13513;42.700;23.124;2022-12-05T09:19:31;93835.55;;;6.10;100.00
10718;BME280;13513;42.700;23.124;2022-12-05T09:22:03;93828.02;;;6.11;100.00
10718;BME280;13513;42.700;23.124;2022-12-05T09:24:36;93827.95;;;5.98;100.00
10718;BME280;13513;42.700;23.124;2022-12-05T09:27:07;93828.81;;;6.18;100.00
10718;BME280;13513;42.700;23.124;2022-12-05T09:29:38;93825.50;;;6.20;100.00
10718;BME280;13513;42.700;23.124;2022-12-05T09:32:09;93823.66;;;6.14;100.00
10718;BME280;13513;42.700;23.124;2022-12-05T09:34:40;93823.06;;;6.12;100.00
10718;BME280;13513;42.700;23.124;2022-12-05T09:37:11;93821.41;;;6.05;100.00
10718;BME280;13513;42.700;23.124;2022-12-05T09:39:44;93820.64;;;6.17;100.00
10718;BME280;13513;42.700;23.124;2022-12-05T09:42:52;93817.71;;;6.10;100.00
10718;BME280;13513;42.700;23.124;2022-12-05T09:45:36;93818.11;;;6.13;100.00
10718;BME280;13513;42.700;23.124;2022-12-05T09:48:14;93805.58;;;6.09;100.00
10718;BME280;13513;42.700;23.124;2022-12-05T09:50:47;93811.58;;;6.26;100.00
10718;BME280;13513;42.700;23.124;2022-12-05T09:53:27;93808.62;;;6.12;100.00
10718;BME280;13513;42.700;23.124;2022-12-05T09:56:17;93802.14;;;6.38;100.00
10718;BME280;13513;42.700;23.124;2022-12-05T09:58:46;93790.34;;;6.58;100.00
10718;BME280;13513;42.700;23.124;2022-12-05T10:01:39;93786.92;;;6.64;100.00
10718;BME280;13513;42.700;23.124;2022-12-05T10:04:29;93787.72;;;6.58;100.00
10718;BME280;13513;42.700;23.124;2022-12-05T10:15:45;93782.06;;;6.48;100.00
10718;BME280;13513;42.700;23.124;2022-12-05T10:18:26;93776.88;;;6.37;100.00
10718;BME280;13513;42.700;23.124;2022-12-05T10:21:04;93786.69;;;6.33;100.00
10718;BME280;13513;42.700;23.124;2022-12-05T10:23:47;93784.45;;;6.36;100.00
10718;BME280;13513;42.700;23.124;2022-12-05T10:26:17;93778.62;;;6.41;100.00
10718;BME280;13513;42.700;23.124;2022-12-05T10:28:56;93782.46;;;6.45;100.00
10718;BME280;13513;42.700;23.124;2022-12-05T10:31:31;93778.00;;;6.39;100.00
10718;BME280;13513;42.700;23.124;2022-12-05T10:34:22;93778.00;;;6.39;100.00
10718;BME280;13513;42.700;23.124;2022-12-05T10:36:54;93781.18;;;6.08;100.00
10718;BME280;13513;42.700;23.124;2022-12-05T10:39:25;93770.31;;;6.31;100.00
10718;BME280;13513;42.700;23.124;2022-12-05T10:41:57;93770.31;;;6.31;100.00
10718;BME280;13513;42.700;23.124;2022-12-05T10:44:28;93768.60;;;6.21;100.00
10718;BME280;13513;42.700;23.124;2022-12-05T10:46:59;93769.83;;;6.38;100.00
10718;BME280;13513;42.700;23.124;2022-12-05T10:49:31;93769.34;;;6.45;100.00
10718;BME280;13513;42.700;23.124;2022-12-05T10:52:03;93759.95;;;6.46;100.00
10718;BME280;13513;42.700;23.124;2022-12-05T10:54:37;93761.46;;;6.58;100.00
10718;BME280;13513;42.700;23.124;2022-12-05T10:57:25;93755.09;;;6.50;100.00
10718;BME280;13513;42.700;23.124;2022-12-05T10:59:51;93761.56;;;6.47;100.00
10718;BME280;13513;42.700;23.124;2022-12-05T11:02:31;93762.45;;;6.31;100.00
10718;BME280;13513;42.700;23.124;2022-12-05T11:05:02;93756.70;;;6.44;100.00
10718;BME280;13513;42.700;23.124;2022-12-05T11:10:20;93753.84;;;6.26;100.00
10718;BME280;13513;42.700;23.124;2022-12-05T11:12:53;93753.25;;;6.18;100.00
10718;BME280;13513;42.700;23.124;2022-12-05T11:15:27;93746.20;;;6.31;100.00
10718;BME280;13513;42.700;23.124;2022-12-05T11:18:00;93742.37;;;6.27;100.00
10718;BME280;13513;42.700;23.124;2022-12-05T11:20:34;93748.19;;;6.03;100.00
10718;BME280;13513;42.700;23.124;2022-12-05T11:23:16;93747.09;;;6.21;100.00
10718;BME280;13513;42.700;23.124;2022-12-05T11:25:46;93750.14;;;6.31;100.00
10718;BME280;13513;42.700;23.124;2022-12-05T11:28:23;93737.02;;;6.38;100.00
10718;BME280;13513;42.700;23.124;2022-12-05T11:31:10;93741.55;;;6.27;100.00
10718;BME280;13513;42.700;23.124;2022-12-05T11:33:36;93731.67;;;6.48;100.00
10718;BME280;13513;42.700;23.124;2022-12-05T11:36:18;93720.77;;;6.58;100.00
10718;BME280;13513;42.700;23.124;2022-12-05T11:38:50;93719.16;;;6.63;100.00
10718;BME280;13513;42.700;23.124;2022-12-05T11:41:46;93708.66;;;6.50;100.00
10718;BME280;13513;42.700;23.124;2022-12-05T11:47:10;93696.23;;;6.48;100.00
10718;BME280;13513;42.700;23.124;2022-12-05T11:49:44;93695.64;;;6.46;100.00
10718;BME280;13513;42.700;23.124;2022-12-05T12:09:23;93691.59;;;6.57;100.00
10718;BME280;13513;42.700;23.124;2022-12-05T12:12:08;93681.91;;;6.57;100.00
10718;BME280;13513;42.700;23.124;2022-12-05T12:17:49;93677.07;;;6.48;100.00
10718;BME280;13513;42.700;23.124;2022-12-05T12:20:29;93676.97;;;6.52;100.00
10718;BME280;13513;42.700;23.124;2022-12-05T12:28:55;93660.19;;;6.59;100.00
10718;BME280;13513;42.700;23.124;2022-12-05T12:34:14;93656.36;;;6.36;100.00
10718;BME280;13513;42.700;23.124;2022-12-05T12:36:54;93658.48;;;6.56;100.00
10718;BME280;13513;42.700;23.124;2022-12-05T12:39:29;93654.13;;;6.52;100.00
10718;BME280;13513;42.700;23.124;2022-12-05T12:45:00;93659.59;;;6.44;100.00
10718;BME280;13513;42.700;23.124;2022-12-05T12:50:30;93652.30;;;6.59;100.00
10718;BME280;13513;42.700;23.124;2022-12-05T12:53:33;93649.61;;;6.31;100.00
10718;BME280;13513;42.700;23.124;2022-12-05T12:59:20;93651.53;;;6.39;100.00
10718;BME280;13513;42.700;23.124;2022-12-05T13:01:51;93649.28;;;6.49;100.00
10718;BME280;13513;42.700;23.124;2022-12-05T13:04:28;93651.81;;;6.47;100.00
10718;BME280;13513;42.700;23.124;2022-12-05T13:07:04;93652.01;;;6.45;100.00
10718;BME280;13513;42.700;23.124;2022-12-05T13:09:39;93647.98;;;6.43;100.00
10718;BME280;13513;42.700;23.124;2022-12-05T13:12:13;93649.72;;;6.20;100.00
10718;BME280;13513;42.700;23.124;2022-12-05T13:14:52;93650.92;;;6.18;100.00
10718;BME280;13513;42.700;23.124;2022-12-05T13:17:23;93649.61;;;6.31;100.00
10718;BME280;13513;42.700;23.124;2022-12-05T13:19:54;93650.20;;;6.26;100.00
10718;BME280;13513;42.700;23.124;2022-12-05T13:22:28;93651.61;;;6.22;100.00
10718;BME280;13513;42.700;23.124;2022-12-05T13:25:00;93659.00;;;6.10;100.00
10718;BME280;13513;42.700;23.124;2022-12-05T13:27:31;93661.42;;;6.18;100.00
10718;BME280;13513;42.700;23.124;2022-12-05T13:30:03;93661.42;;;6.18;100.00
10718;BME280;13513;42.700;23.124;2022-12-05T13:32:37;93657.48;;;6.18;100.00
10718;BME280;13513;42.700;23.124;2022-12-05T13:35:25;93656.69;;;6.30;100.00
10718;BME280;13513;42.700;23.124;2022-12-05T13:38:27;93647.80;;;6.31;100.00
10718;BME280;13513;42.700;23.124;2022-12-05T13:40:59;93661.94;;;6.30;100.00
10718;BME280;13513;42.700;23.124;2022-12-05T13:43:48;93650.11;;;6.17;100.00
10718;BME280;13513;42.700;23.124;2022-12-05T13:46:25;93651.13;;;6.23;100.00
10718;BME280;13513;42.700;23.124;2022-12-05T13:49:06;93661.63;;;6.03;100.00
10718;BME280;13513;42.700;23.124;2022-12-05T13:51:36;93658.08;;;6.20;100.00
10718;BME280;13513;42.700;23.124;2022-12-05T13:54:21;93658.08;;;6.20;100.00
10718;BME280;13513;42.700;23.124;2022-12-05T13:57:02;93659.79;;;6.10;100.00
10718;BME280;13513;42.700;23.124;2022-12-05T14:02:53;93657.06;;;6.08;100.00
10718;BME280;13513;42.700;23.124;2022-12-05T14:05:34;93652.61;;;5.95;100.00
10718;BME280;13513;42.700;23.124;2022-12-05T14:19:27;93666.77;;;6.07;100.00
10718;BME280;13513;42.700;23.124;2022-12-05T14:21:53;93665.86;;;6.04;100.00
10718;BME280;13513;42.700;23.124;2022-12-05T14:24:41;93665.86;;;6.04;100.00
10718;BME280;13513;42.700;23.124;2022-12-05T14:30:33;93669.46;;;5.97;100.00
10718;BME280;13513;42.700;23.124;2022-12-05T14:33:02;93670.09;;;6.05;100.00
10718;BME280;13513;42.700;23.124;2022-12-05T14:35:54;93672.91;;;6.04;100.00
10718;BME280;13513;42.700;23.124;2022-12-05T14:38:06;93675.00;;;5.91;100.00
10718;BME280;13513;42.700;23.124;2022-12-05T14:40:38;93668.34;;;5.82;100.00
10718;BME280;13513;42.700;23.124;2022-12-05T14:43:20;93674.75;;;5.73;100.00
10718;BME280;13513;42.700;23.124;2022-12-05T14:46:05;93670.01;;;5.79;100.00
10718;BME280;13513;42.700;23.124;2022-12-05T14:48:41;93666.05;;;5.90;100.00
10718;BME280;13513;42.700;23.124;2022-12-05T14:54:15;93670.30;;;5.74;100.00
10718;BME280;13513;42.700;23.124;2022-12-05T14:56:47;93679.31;;;5.82;100.00
10718;BME280;13513;42.700;23.124;2022-12-05T15:00:15;93675.04;;;5.68;100.00
10718;BME280;13513;42.700;23.124;2022-12-05T15:02:01;93673.25;;;5.75;100.00
10718;BME280;13513;42.700;23.124;2022-12-05T15:07:21;93667.56;;;5.65;100.00
10718;BME280;13513;42.700;23.124;2022-12-05T15:10:04;93677.22;;;5.58;100.00
10718;BME280;13513;42.700;23.124;2022-12-05T15:12:41;93672.42;;;5.68;100.00
10718;BME280;13513;42.700;23.124;2022-12-05T15:15:14;93672.70;;;5.56;100.00